Aviation Digital Data Service (ADDS)

Output produced by METARs form (2046 UTC 25 February 2017)
found at http://www.aviationweather.gov/adds/metars/
 
KTHV 252014Z AUTO 29016G23KT 5SM -TSRA BR FEW019 BKN038 OVC080 12/11 A2947 RMK AO2 PK WND 29036/1955 LTG DSNT ALQDS P0022 T01220106
KTHV 252010Z AUTO 29017G23KT 1 1/4SM TSRA BR SCT019 BKN035 OVC090 12/11 A2948 RMK AO2 PK WND 29036/1955 VIS 1/2V5 LTG DSNT ALQDS P0022 T01220111
KTHV 251955Z AUTO 29025G36KT 3/4SM +TSRA BR SCT017 BKN040 OVC100 13/13 A2944 RMK AO2 PK WND 29036/1955 LTG DSNT ALQDS P0005 T01330128
KTHV 251953Z AUTO 29023G32KT 1 1/2SM +TSRA BR FEW014 BKN045 OVC100 14/14 A2942 RMK AO2 PK WND 28032/1952 LTG DSNT ALQDS TSE1854B1855E24B39 SLP962 P0020 T01440139
KTHV 251945Z AUTO 18004KT 9SM -TSRA SCT045 SCT060 OVC090 17/16 A2939 RMK AO2 LTG DSNT ALQDS TSE1854B1855E24B39 P0011 T01720156
KTHV 251930Z AUTO VRB04KT 5SM VCTS -RA BR FEW032 BKN046 BKN060 17/16 A2938 RMK AO2 LTG DSNT ALQDS TSE1854B1855E24 P0009 T01720156
KTHV 251915Z AUTO 19008G18KT 4SM -TSRA BR FEW034 BKN045 BKN055 18/16 A2939 RMK AO2 LTG DSNT ALQDS TSE1854B1855 P0007 T01780156
KTHV 251912Z AUTO 19008G19KT 2SM -TSRA BR FEW028 SCT036 BKN045 18/16 A2939 RMK AO2 LTG DSNT ALQDS TSE1854B1855 P0007 T01780156
KTHV 251853Z AUTO 19008G16KT 10SM -TSRA SCT037 BKN046 21/14 A2941 RMK AO2 LTG DSNT ALQDS RAB19E38B53 TSB39 SLP959 P0002 T02060144
KTHV 251845Z AUTO 18008KT 10SM TS BKN037 BKN046 21/15 A2941 RMK AO2 LTG DSNT ALQDS RAB19E38 TSB39 PRESFR P0002 T02060150
KTHV 251832Z AUTO 23004KT 10SM VCTS -RA BKN037 BKN044 BKN055 20/16 A2944 RMK AO2 LTG DSNT S AND SW RAB19 P0002 T02000156
KTHV 251753Z AUTO 21008KT 10SM BKN034 OVC047 21/14 A2950 RMK AO2 SLP988 T02060144 10211 20156 58035
KTHV 251653Z AUTO 20013G19KT 10SM BKN036 BKN045 OVC060 21/14 A2953 RMK AO2 SLP000 T02060144
KTHV 251600Z AUTO 18006G16KT 10SM SCT025 BKN032 BKN039 19/14 A2957 RMK AO2 T01940144
KTHV 251553Z AUTO 19008KT 10SM SCT025 BKN029 BKN035 19/14 A2958 RMK AO2 SLP017 T01940144
KTHV 251453Z AUTO 17008G18KT 10SM SCT019 18/14 A2960 RMK AO2 SLP023 T01780144 58018
KTHV 251424Z AUTO 17006KT 10SM SCT019 17/14 A2961 RMK AO2 T01720144
KTHV 251414Z AUTO 17007KT 140V200 10SM BKN019 18/14 A2961 RMK AO2 T01780144
KTHV 251403Z AUTO 18008G17KT 120V200 10SM SCT017 17/14 A2962 RMK AO2 T01720144
KTHV 251353Z AUTO 17008KT 10SM BKN017 17/14 A2962 RMK AO2 SLP031 T01720144
KTHV 251330Z AUTO 17007KT 10SM OVC016 17/14 A2963 RMK AO2 T01670144
KTHV 251253Z AUTO 18007G15KT 140V200 10SM OVC014 16/14 A2963 RMK AO2 SLP036 T01610144
KTHV 251153Z AUTO 19005KT 10SM OVC013 16/14 A2965 RMK AO2 SLP042 T01560144 10167 20156 56018
KTHV 251053Z AUTO 16008KT 130V200 10SM BKN013 16/14 A2966 RMK AO2 SLP045 T01560144
KTHV 251045Z AUTO 17008KT 130V210 10SM BKN013 16/14 A2967 RMK AO2 T01560144
KTHV 250953Z AUTO 16008KT 10SM BKN015 16/14 A2969 RMK AO2 SLP053 T01560144
KTHV 250938Z AUTO 15008KT 10SM BKN015 16/14 A2970 RMK AO2 T01560144
KTHV 250928Z AUTO 16007KT 10SM SCT016 16/14 A2970 RMK AO2 T01560144
KTHV 250853Z AUTO 16007KT 10SM BKN017 16/14 A2971 RMK AO2 SLP060 T01560144 58018
KTHV 250808Z AUTO 18006KT 10SM BKN016 16/14 A2972 RMK AO2 T01610144
KTHV 250753Z AUTO 18004KT 10SM FEW016 16/14 A2972 RMK AO2 SLP065 T01610144
KTHV 250653Z AUTO 19006KT 10SM FEW055 BKN065 17/15 A2975 RMK AO2 SLP073 T01670150
KTHV 250553Z AUTO 17006KT 10SM FEW047 OVC060 17/15 A2976 RMK AO2 SLP076 T01670150 10183 20161 56007
KTHV 250453Z AUTO 18005KT 10SM SCT050 17/15 A2976 RMK AO2 SLP078 T01670150 402440100
KTHV 250353Z AUTO 17005KT 10SM CLR 16/14 A2977 RMK AO2 SLP081 T01610144
KTHV 250253Z AUTO 16008G15KT 10SM CLR 16/14 A2978 RMK AO2 SLP084 T01610139 58003
KTHV 250153Z AUTO 16008G15KT 140V200 10SM CLR 17/13 A2979 RMK AO2 SLP087 T01720133
KTHV 250053Z AUTO 15006KT 10SM CLR 17/13 A2979 RMK AO2 SLP088 T01720128
KTHV 242353Z AUTO 15007KT 10SM CLR 18/12 A2979 RMK AO2 SLP088 T01830122 10244 20183 55001
KTHV 242253Z AUTO 16009G18KT 10SM CLR 20/12 A2978 RMK AO2 SLP085 T02000122
KTHV 242153Z AUTO 15013G18KT 10SM CLR 22/12 A2979 RMK AO2 SLP087 T02170122
KTHV 242053Z AUTO 15015G21KT 10SM FEW060 22/13 A2979 RMK AO2 SLP089 T02220128 56012
KTHV 241953Z AUTO 19008G16KT 10SM FEW060 23/12 A2980 RMK AO2 SLP090 T02330117
KTHV 241853Z AUTO 19008G19KT 10SM FEW060 24/11 A2981 RMK AO2 SLP093 T02390111
KTHV 241753Z AUTO 19012G18KT 10SM CLR 24/12 A2983 RMK AO2 SLP099 T02390117 10239 20106 58025
KTHV 241653Z AUTO 22008KT 10SM CLR 22/12 A2986 RMK AO2 SLP111 T02220122
KTHV 241553Z AUTO 20007KT 10SM CLR 21/13 A2989 RMK AO2 SLP122 T02110128
KTHV 241453Z AUTO 20008KT 10SM CLR 18/12 A2990 RMK AO2 SLP126 T01830122 50008
KTHV 241353Z AUTO 20006KT 10SM CLR 16/12 A2990 RMK AO2 SLP127 T01610122
KTHV 241253Z AUTO VRB04KT 10SM CLR 14/11 A2990 RMK AO2 SLP125 T01390111
KTHV 241153Z AUTO 00000KT 10SM CLR 11/10 A2988 RMK AO2 SLP119 T01110100 10172 20100 51004
KTHV 241053Z AUTO 21004KT 10SM CLR 14/11 A2987 RMK AO2 SLP116 T01440106
KTHV 240953Z AUTO 00000KT 10SM OVC095 15/11 A2988 RMK AO2 SLP117 T01500106
KTHV 240853Z AUTO 18004KT 10SM BKN095 15/11 A2987 RMK AO2 SLP114 T01500106 51002